Time;durP1;ratioP1;P1;durP2;ratioP2;P2;SDS_P1;SDS_P2;PMS_P1;PMS_P2;Temp;Humidity;BMP_temperature;BMP_pressure;BME280_temperature;BME280_humidity;BME280_pressure;Samples;Min_cycle;Max_cycle;Signal;HPM_P1;HPM_P2
2023/02/23 00:01:37;;;;;;;117.95;42.58;;;10.50;99.90;;;;;;4978601;28;20179;-81
2023/02/23 00:04:09;;;;;;;107.30;41.00;;;10.50;99.90;;;;;;4959379;28;20171;-81
2023/02/23 00:06:36;;;;;;;106.75;42.63;;;10.50;99.90;;;;;;4978398;28;20198;-81
2023/02/23 00:09:11;;;;;;;111.20;44.50;;;10.50;99.90;;;;;;4978213;28;20163;-82
2023/02/23 00:11:36;;;;;;;111.90;42.85;;;10.50;99.90;;;;;;4977932;28;20233;-82
2023/02/23 00:14:02;;;;;;;113.07;44.47;;;10.40;99.90;;;;;;4978581;28;20167;-82
2023/02/23 00:16:28;;;;;;;115.77;41.30;;;10.50;99.90;;;;;;4977967;28;20174;-81
2023/02/23 00:18:59;;;;;;;110.47;40.47;;;10.50;99.90;;;;;;4977673;28;20954;-82
2023/02/23 00:21:30;;;;;;;115.20;42.25;;;10.40;99.90;;;;;;4977851;28;20182;-82
2023/02/23 00:23:58;;;;;;;116.10;41.03;;;10.40;99.90;;;;;;4977344;28;20182;-82
2023/02/23 00:26:29;;;;;;;112.57;44.05;;;10.40;99.90;;;;;;4978146;28;20178;-82
2023/02/23 00:28:55;;;;;;;112.68;43.58;;;10.50;99.90;;;;;;4977503;28;20158;-81
2023/02/23 00:31:24;;;;;;;112.28;42.35;;;10.40;99.90;;;;;;4960687;28;20548;-81
2023/02/23 00:34:01;;;;;;;114.88;43.60;;;10.40;99.90;;;;;;4960668;28;20182;-81
2023/02/23 00:36:29;;;;;;;113.35;43.30;;;10.40;99.90;;;;;;4978042;28;20160;-81
2023/02/23 00:39:01;;;;;;;110.57;44.17;;;10.40;99.90;;;;;;4977928;28;20199;-81
2023/02/23 00:41:27;;;;;;;107.70;42.15;;;10.40;99.90;;;;;;4977181;28;20242;-81
2023/02/23 00:43:59;;;;;;;105.57;39.80;;;10.40;99.90;;;;;;4977690;28;20167;-81
2023/02/23 00:46:31;;;;;;;116.20;44.88;;;10.40;99.90;;;;;;4978017;28;21042;-82
2023/02/23 00:48:58;;;;;;;119.00;44.03;;;10.40;99.90;;;;;;4977791;28;20177;-81
2023/02/23 00:51:31;;;;;;;114.82;42.08;;;10.30;99.90;;;;;;4977335;28;20241;-81
2023/02/23 00:53:59;;;;;;;114.82;46.72;;;10.30;99.90;;;;;;4960361;28;20639;-81
2023/02/23 00:56:25;;;;;;;111.63;42.33;;;10.30;99.90;;;;;;4978112;28;20691;-82
2023/02/23 00:58:50;;;;;;;112.63;49.75;;;10.30;99.90;;;;;;4960520;28;20198;-82
2023/02/23 01:01:17;;;;;;;116.67;45.97;;;10.30;99.90;;;;;;4977977;28;20179;-81
2023/02/23 01:03:44;;;;;;;118.03;48.05;;;10.20;99.90;;;;;;4960537;28;20166;-81
2023/02/23 01:06:13;;;;;;;109.10;41.92;;;10.20;99.90;;;;;;4978578;28;20167;-81
2023/02/23 01:08:42;;;;;;;118.53;45.28;;;10.20;99.90;;;;;;4981420;28;20586;-81
2023/02/23 01:11:11;;;;;;;116.72;48.70;;;10.20;99.90;;;;;;4981319;28;20171;-81
2023/02/23 01:13:38;;;;;;;112.78;44.42;;;10.20;99.90;;;;;;4964112;28;20179;-81
2023/02/23 01:16:10;;;;;;;110.93;41.95;;;10.20;99.90;;;;;;4980846;28;20600;-81
2023/02/23 01:18:36;;;;;;;106.97;43.65;;;10.30;99.90;;;;;;4980684;28;20191;-81
2023/02/23 01:21:06;;;;;;;110.05;44.00;;;10.20;99.90;;;;;;4981188;28;20167;-81
2023/02/23 01:23:32;;;;;;;109.50;42.40;;;10.30;99.90;;;;;;4980855;28;20632;-81
2023/02/23 01:25:58;;;;;;;115.03;44.73;;;10.20;99.90;;;;;;4980817;28;20198;-81
2023/02/23 01:28:23;;;;;;;114.75;44.97;;;10.20;99.90;;;;;;4980724;28;20262;-81
2023/02/23 01:30:49;;;;;;;116.70;45.57;;;10.20;99.90;;;;;;4963449;28;20213;-81
2023/02/23 01:33:15;;;;;;;114.23;42.33;;;10.20;99.90;;;;;;4963282;28;20195;-81
2023/02/23 01:35:42;;;;;;;115.43;44.70;;;10.20;99.90;;;;;;4963235;28;20419;-81
2023/02/23 01:38:09;;;;;;;115.75;45.35;;;10.20;99.90;;;;;;4963145;28;20199;-81
2023/02/23 01:40:37;;;;;;;110.28;45.10;;;10.20;99.90;;;;;;4980305;28;20524;-81
2023/02/23 01:43:15;;;;;;;110.20;44.47;;;10.10;99.90;;;;;;4962705;28;20290;-81
2023/02/23 01:45:44;;;;;;;114.15;44.28;;;10.20;99.90;;;;;;4980487;28;20558;-81
2023/02/23 01:48:20;;;;;;;112.90;44.75;;;10.30;99.90;;;;;;4963252;28;20175;-81
2023/02/23 01:51:12;;;;;;;109.47;43.17;;;10.20;99.90;;;;;;4980715;28;20158;-81
2023/02/23 01:53:42;;;;;;;112.10;45.60;;;10.30;99.90;;;;;;4962788;28;20190;-81
2023/02/23 01:56:13;;;;;;;114.07;44.22;;;10.30;99.90;;;;;;4980666;28;20163;-81
2023/02/23 01:58:45;;;;;;;115.47;43.33;;;10.20;99.90;;;;;;4963169;28;20694;-81
2023/02/23 02:01:12;;;;;;;111.03;44.00;;;10.20;99.90;;;;;;4962372;28;20163;-81
2023/02/23 02:03:56;;;;;;;114.65;45.67;;;10.20;99.90;;;;;;4962333;28;20198;-81
2023/02/23 02:06:27;;;;;;;118.45;43.67;;;10.20;99.90;;;;;;4962967;28;20175;-81
2023/02/23 02:08:56;;;;;;;114.78;43.92;;;10.20;99.90;;;;;;4980134;28;20154;-81
2023/02/23 02:17:01;;;;;;;125.10;45.22;;;10.20;99.90;;;;;;4978369;28;20211;-81
2023/02/23 02:19:36;;;;;;;118.55;44.05;;;10.10;99.90;;;;;;4979158;28;20175;-81
2023/02/23 02:22:20;;;;;;;118.03;43.95;;;10.10;99.90;;;;;;4985218;28;20210;-81
2023/02/23 02:24:56;;;;;;;129.02;47.70;;;10.10;99.90;;;;;;4960226;29;20164;-81
2023/02/23 02:27:47;;;;;;;124.85;48.88;;;10.10;99.90;;;;;;4961192;28;20163;-81
2023/02/23 02:30:28;;;;;;;126.47;50.38;;;10.10;99.90;;;;;;4959140;29;20176;-81
2023/02/23 02:33:30;;;;;;;126.93;47.42;;;10.10;99.90;;;;;;4960168;28;20191;-81
2023/02/23 02:36:23;;;;;;;130.80;49.70;;;10.10;99.90;;;;;;4960263;28;20207;-81
2023/02/23 02:39:22;;;;;;;122.65;45.85;;;10.10;99.90;;;;;;4960218;29;20184;-81
2023/02/23 02:41:52;;;;;;;125.25;44.17;;;10.10;99.90;;;;;;4960308;28;20180;-81
2023/02/23 02:44:27;;;;;;;126.53;51.05;;;10.10;99.90;;;;;;4960256;28;20215;-81
2023/02/23 02:47:00;;;;;;;129.52;48.55;;;10.00;99.90;;;;;;4960485;28;20247;-81
2023/02/23 02:49:51;;;;;;;128.18;48.17;;;10.00;99.90;;;;;;4960633;28;20552;-81
2023/02/23 02:52:25;;;;;;;122.72;47.63;;;10.00;99.90;;;;;;4946295;28;20206;-81
2023/02/23 02:54:55;;;;;;;129.27;49.00;;;10.10;99.90;;;;;;4958129;29;20510;-81
2023/02/23 02:57:25;;;;;;;127.57;48.70;;;10.10;99.90;;;;;;4960140;28;20156;-81
2023/02/23 04:18:02;;;;;;;125.90;45.42;;;9.90;99.90;;;;;;4958574;28;20191;-81
2023/02/23 04:20:27;;;;;;;130.15;47.17;;;9.90;99.90;;;;;;4957650;29;20168;-81
2023/02/23 04:22:53;;;;;;;122.77;44.23;;;10.00;99.90;;;;;;4957924;28;20623;-81
2023/02/23 04:25:21;;;;;;;135.40;44.33;;;9.90;99.90;;;;;;4957485;29;20163;-81
2023/02/23 04:27:50;;;;;;;126.93;45.13;;;9.90;99.90;;;;;;4958458;28;20204;-81
2023/02/23 04:30:16;;;;;;;124.32;45.78;;;9.90;99.90;;;;;;4958381;29;20164;-81
2023/02/23 04:32:43;;;;;;;125.00;43.15;;;9.90;99.90;;;;;;4958073;28;20192;-81
2023/02/23 04:35:09;;;;;;;125.65;44.15;;;9.90;99.90;;;;;;4958383;28;20234;-81
2023/02/23 04:37:37;;;;;;;126.73;47.20;;;9.80;99.90;;;;;;4958619;29;20191;-81
2023/02/23 04:40:03;;;;;;;128.15;45.47;;;9.80;99.90;;;;;;4957827;28;20407;-81
2023/02/23 04:42:29;;;;;;;124.57;49.95;;;9.80;99.90;;;;;;4956773;28;20188;-81
2023/02/23 04:44:54;;;;;;;125.00;47.10;;;9.80;99.90;;;;;;4957361;29;20571;-81
2023/02/23 04:47:20;;;;;;;120.53;45.00;;;9.80;99.90;;;;;;4958145;29;20529;-81
2023/02/23 04:49:46;;;;;;;127.70;48.00;;;9.70;99.90;;;;;;4958129;29;20167;-81
2023/02/23 04:52:12;;;;;;;124.22;45.88;;;9.70;99.90;;;;;;4958197;28;20552;-81
2023/02/23 04:54:38;;;;;;;129.60;47.13;;;9.80;99.90;;;;;;4958246;29;20167;-81
2023/02/23 04:57:04;;;;;;;129.70;47.42;;;9.80;99.90;;;;;;4957892;28;20533;-82
2023/02/23 04:59:31;;;;;;;123.90;46.70;;;9.70;99.90;;;;;;4958539;29;20199;-81
2023/02/23 05:01:56;;;;;;;118.20;42.05;;;9.80;99.90;;;;;;4957830;28;20795;-81
2023/02/23 05:05:02;;;;;;;119.57;42.33;;;9.80;99.90;;;;;;4958290;29;20179;-81
2023/02/23 05:07:27;;;;;;;116.80;39.47;;;9.90;99.90;;;;;;4953321;29;20180;-82
2023/02/23 05:09:53;;;;;;;125.33;42.07;;;9.90;99.90;;;;;;4958731;29;20524;-82
2023/02/23 05:12:19;;;;;;;118.90;40.37;;;9.90;99.90;;;;;;4958393;28;20264;-81
2023/02/23 05:14:45;;;;;;;132.15;46.00;;;9.90;99.90;;;;;;4958875;28;20678;-81
2023/02/23 05:17:10;;;;;;;126.83;43.90;;;9.80;99.90;;;;;;4958048;29;20199;-81
2023/02/23 05:19:36;;;;;;;117.53;40.80;;;9.80;99.90;;;;;;4958517;29;20540;-81
2023/02/23 05:22:03;;;;;;;126.70;43.40;;;9.80;99.90;;;;;;4959732;28;20191;-83
2023/02/23 05:24:29;;;;;;;128.32;43.80;;;9.80;99.90;;;;;;5042860;22;20500;-85
2023/02/23 05:26:54;;;;;;;138.48;46.97;;;9.80;99.90;;;;;;5009033;28;20162;-85
2023/02/23 05:29:20;;;;;;;133.63;45.10;;;9.70;99.90;;;;;;5008797;28;20171;-85
2023/02/23 05:31:47;;;;;;;124.97;42.13;;;9.70;99.90;;;;;;5010835;28;20437;-85
2023/02/23 05:34:15;;;;;;;126.47;42.35;;;9.70;99.90;;;;;;5010513;28;20201;-85
2023/02/23 05:36:41;;;;;;;126.07;42.83;;;9.70;99.90;;;;;;5009703;28;20190;-85
2023/02/23 05:39:07;;;;;;;141.60;46.27;;;9.70;99.90;;;;;;5006440;28;20202;-85
2023/02/23 05:41:33;;;;;;;131.87;42.63;;;9.60;99.90;;;;;;5004391;28;20442;-86
2023/02/23 05:43:58;;;;;;;126.20;42.23;;;9.70;99.90;;;;;;5004179;28;20200;-86
2023/02/23 05:46:25;;;;;;;122.07;40.90;;;9.70;99.90;;;;;;5003880;28;20412;-85
2023/02/23 05:48:56;;;;;;;125.60;42.55;;;9.70;99.90;;;;;;5003270;28;20175;-86
2023/02/23 05:51:22;;;;;;;129.43;45.38;;;9.70;99.90;;;;;;5006140;28;20186;-86
2023/02/23 05:53:48;;;;;;;123.90;44.77;;;9.70;99.90;;;;;;5007946;28;20178;-86
2023/02/23 05:56:19;;;;;;;140.63;47.03;;;9.70;99.90;;;;;;5009379;28;20166;-86
2023/02/23 05:58:52;;;;;;;127.15;45.75;;;9.70;99.90;;;;;;5008633;28;20174;-86
2023/02/23 06:01:18;;;;;;;130.43;44.45;;;9.70;99.90;;;;;;5007607;28;20221;-86
2023/02/23 06:03:45;;;;;;;127.60;42.67;;;9.70;99.90;;;;;;5008150;28;20169;-86
2023/02/23 06:06:11;;;;;;;123.55;42.67;;;9.70;99.90;;;;;;5008546;28;20163;-86
2023/02/23 06:08:37;;;;;;;117.82;41.60;;;9.70;99.90;;;;;;5008609;28;20226;-86
2023/02/23 06:11:03;;;;;;;116.90;39.67;;;9.70;99.90;;;;;;5008709;28;20175;-86
2023/02/23 06:13:30;;;;;;;115.47;40.50;;;9.70;99.90;;;;;;5006725;28;20427;-87
2023/02/23 06:15:58;;;;;;;117.50;41.75;;;9.60;99.90;;;;;;5008368;28;20170;-86
2023/02/23 06:18:24;;;;;;;113.13;38.63;;;9.60;99.90;;;;;;5007814;28;20190;-86
2023/02/23 06:20:50;;;;;;;118.32;42.35;;;9.60;99.90;;;;;;5007934;28;20171;-87
2023/02/23 06:23:15;;;;;;;112.87;38.67;;;9.60;99.90;;;;;;5008824;28;20720;-87
2023/02/23 06:25:42;;;;;;;113.10;39.00;;;9.60;99.90;;;;;;5009178;28;20187;-87
2023/02/23 06:28:09;;;;;;;115.40;40.15;;;9.60;99.90;;;;;;5010538;28;20777;-87
2023/02/23 06:30:36;;;;;;;117.78;41.45;;;9.60;99.90;;;;;;5009444;28;20182;-87
2023/02/23 06:33:02;;;;;;;127.85;39.70;;;9.60;99.90;;;;;;5009560;28;20186;-87
2023/02/23 06:35:28;;;;;;;120.53;40.25;;;9.50;99.90;;;;;;5009804;28;20257;-87
2023/02/23 06:37:58;;;;;;;123.37;41.93;;;9.50;99.90;;;;;;5008119;28;20218;-87
2023/02/23 06:40:23;;;;;;;125.97;41.65;;;9.50;99.90;;;;;;5008807;28;20409;-87
2023/02/23 06:42:49;;;;;;;123.53;42.47;;;9.50;99.90;;;;;;5009301;28;20178;-87
2023/02/23 06:45:15;;;;;;;120.63;42.93;;;9.50;99.90;;;;;;5009175;28;20599;-87
2023/02/23 06:47:41;;;;;;;106.38;34.78;;;9.50;99.90;;;;;;5008545;28;20657;-87
2023/02/23 06:50:08;;;;;;;119.10;42.87;;;9.60;99.90;;;;;;5008586;28;20175;-87
2023/02/23 06:52:34;;;;;;;118.50;39.38;;;9.60;99.90;;;;;;5008255;28;20198;-87
2023/02/23 06:55:00;;;;;;;113.33;37.97;;;9.60;99.90;;;;;;5008143;28;20185;-87
2023/02/23 06:57:25;;;;;;;118.70;38.63;;;9.60;99.90;;;;;;5009050;28;20174;-87
2023/02/23 06:59:52;;;;;;;121.30;43.53;;;9.60;99.90;;;;;;5008608;28;20164;-87
2023/02/23 07:02:18;;;;;;;121.03;39.70;;;9.60;99.90;;;;;;5007187;28;20197;-87
2023/02/23 07:04:43;;;;;;;123.90;40.27;;;9.70;99.90;;;;;;5008210;28;20163;-87
2023/02/23 07:07:09;;;;;;;120.17;42.17;;;9.70;99.90;;;;;;5007899;28;20414;-87
2023/02/23 07:09:35;;;;;;;122.88;44.95;;;9.80;99.90;;;;;;5009605;28;20233;-87
2023/02/23 07:12:03;;;;;;;123.27;43.47;;;9.80;99.90;;;;;;5007360;28;20198;-87
2023/02/23 07:14:28;;;;;;;116.10;38.92;;;9.80;99.90;;;;;;5009259;28;20775;-87
2023/02/23 07:16:54;;;;;;;120.67;42.40;;;9.70;99.90;;;;;;5009755;28;20177;-88
2023/02/23 07:19:20;;;;;;;124.43;42.30;;;9.60;99.90;;;;;;5009395;28;20509;-87
2023/02/23 07:21:46;;;;;;;117.90;39.30;;;9.60;99.90;;;;;;5009313;28;20186;-87
2023/02/23 07:24:12;;;;;;;119.50;41.80;;;9.70;99.90;;;;;;5010463;28;20181;-87
2023/02/23 07:26:39;;;;;;;122.00;40.67;;;9.80;99.90;;;;;;5010003;28;20234;-87
2023/02/23 07:29:05;;;;;;;119.90;41.88;;;9.70;99.90;;;;;;5008090;28;20653;-87
2023/02/23 07:31:31;;;;;;;124.83;41.87;;;9.70;99.90;;;;;;5008685;28;20190;-87
2023/02/23 07:33:57;;;;;;;122.33;39.43;;;9.70;99.90;;;;;;5008404;28;20459;-87
2023/02/23 07:36:23;;;;;;;125.77;40.83;;;9.70;99.90;;;;;;5007801;28;20275;-87
2023/02/23 07:38:49;;;;;;;138.80;41.53;;;9.70;99.90;;;;;;5008747;28;20190;-87
2023/02/23 07:41:15;;;;;;;121.85;43.13;;;9.70;99.90;;;;;;5007664;28;20245;-87
2023/02/23 07:43:41;;;;;;;127.00;42.03;;;9.70;99.90;;;;;;5007256;28;20172;-87
2023/02/23 07:46:10;;;;;;;117.83;42.10;;;9.70;99.90;;;;;;5009116;28;20409;-87
2023/02/23 07:48:36;;;;;;;128.80;41.38;;;9.70;99.90;;;;;;5007118;28;20179;-87
2023/02/23 07:51:09;;;;;;;122.45;39.17;;;9.70;99.90;;;;;;5006909;28;20170;-87
2023/02/23 07:53:34;;;;;;;125.05;41.53;;;9.70;99.90;;;;;;5008565;28;20143;-87
2023/02/23 07:56:02;;;;;;;125.70;41.23;;;9.70;99.90;;;;;;5008882;28;20197;-87
2023/02/23 07:58:29;;;;;;;124.60;39.83;;;9.80;99.90;;;;;;5006652;28;20261;-87
2023/02/23 08:00:55;;;;;;;128.32;44.50;;;9.80;99.90;;;;;;5007430;28;20249;-87
2023/02/23 08:03:21;;;;;;;124.93;44.22;;;9.80;99.90;;;;;;5007841;28;20642;-87
2023/02/23 08:05:47;;;;;;;128.13;42.67;;;9.80;99.90;;;;;;5008411;28;20186;-87
2023/02/23 08:08:15;;;;;;;126.97;41.03;;;9.70;99.90;;;;;;5008932;28;20445;-87
2023/02/23 08:10:41;;;;;;;130.10;43.75;;;9.80;99.90;;;;;;5007472;28;20178;-87
2023/02/23 08:13:07;;;;;;;116.47;38.23;;;9.70;99.90;;;;;;5009315;28;20190;-87
2023/02/23 08:15:32;;;;;;;127.47;42.07;;;9.80;99.90;;;;;;5007173;28;20163;-87
2023/02/23 08:17:58;;;;;;;120.43;40.20;;;9.70;99.90;;;;;;5008939;28;20188;-87
2023/02/23 08:20:24;;;;;;;118.50;39.58;;;9.80;99.90;;;;;;5008075;28;20170;-87
2023/02/23 08:22:57;;;;;;;130.57;41.90;;;9.80;99.90;;;;;;5008748;28;20182;-87
2023/02/23 08:25:24;;;;;;;125.82;41.22;;;9.80;99.90;;;;;;5007056;28;20434;-87
2023/02/23 08:27:53;;;;;;;124.55;40.15;;;9.90;99.90;;;;;;5007131;28;20185;-87
2023/02/23 08:30:21;;;;;;;118.10;41.95;;;9.90;99.90;;;;;;5008605;28;20170;-87
2023/02/23 08:32:47;;;;;;;116.25;38.58;;;9.90;99.90;;;;;;5007225;28;20197;-87
2023/02/23 08:35:13;;;;;;;123.22;39.83;;;9.90;99.90;;;;;;5008288;28;20163;-87
2023/02/23 08:37:40;;;;;;;116.95;41.25;;;9.90;99.90;;;;;;5007797;28;20195;-87
2023/02/23 08:40:07;;;;;;;116.75;39.65;;;10.00;99.90;;;;;;5008063;28;20162;-87
2023/02/23 08:42:33;;;;;;;118.85;37.67;;;10.00;99.90;;;;;;5007788;28;20183;-87
2023/02/23 08:45:00;;;;;;;121.20;40.95;;;10.10;99.90;;;;;;5009457;28;20167;-87
2023/02/23 08:47:26;;;;;;;115.35;38.72;;;10.10;99.90;;;;;;5007713;28;20167;-87
2023/02/23 08:49:55;;;;;;;117.75;37.33;;;10.10;99.90;;;;;;5009132;28;20190;-87
2023/02/23 08:52:20;;;;;;;115.38;36.88;;;10.10;99.90;;;;;;5008089;28;20221;-87
2023/02/23 08:54:49;;;;;;;119.33;39.53;;;10.10;99.90;;;;;;5009138;28;20174;-87
2023/02/23 08:57:16;;;;;;;113.32;38.30;;;10.00;99.90;;;;;;5008243;28;20177;-87
2023/02/23 08:59:45;;;;;;;120.30;39.70;;;10.00;99.90;;;;;;5009181;28;20159;-87
2023/02/23 09:02:13;;;;;;;120.70;36.45;;;10.10;99.90;;;;;;5007874;28;20195;-87
2023/02/23 09:04:42;;;;;;;110.75;35.60;;;10.10;99.90;;;;;;5009103;28;20566;-87
2023/02/23 09:07:13;;;;;;;106.97;34.90;;;10.20;99.90;;;;;;5009661;28;20163;-87
2023/02/23 09:09:39;;;;;;;110.65;36.55;;;10.20;99.90;;;;;;5010150;28;20155;-87
2023/02/23 09:12:05;;;;;;;107.78;35.42;;;10.20;99.90;;;;;;5009476;28;20178;-87
2023/02/23 09:14:31;;;;;;;111.73;38.17;;;10.20;99.90;;;;;;5008947;28;20181;-87
2023/02/23 09:16:57;;;;;;;109.72;35.25;;;10.20;99.90;;;;;;5009258;28;20406;-87
2023/02/23 09:19:22;;;;;;;112.50;36.43;;;10.00;99.90;;;;;;5008724;28;20190;-87
2023/02/23 09:21:48;;;;;;;108.40;35.40;;;10.00;99.90;;;;;;5008653;28;20456;-87
2023/02/23 09:24:17;;;;;;;109.07;35.77;;;10.00;99.90;;;;;;5008494;28;20455;-88
2023/02/23 09:26:43;;;;;;;105.93;34.85;;;10.10;99.90;;;;;;5009053;28;20178;-87
2023/02/23 09:29:09;;;;;;;116.18;36.80;;;10.10;99.90;;;;;;5013289;28;20227;-87
2023/02/23 09:31:42;;;;;;;115.63;36.23;;;10.20;99.90;;;;;;5011988;28;20197;-87
2023/02/23 09:34:09;;;;;;;112.28;37.53;;;10.20;99.90;;;;;;5012003;28;20266;-87
2023/02/23 09:36:35;;;;;;;105.18;34.60;;;10.20;99.90;;;;;;5011765;28;20238;-87
2023/02/23 09:39:01;;;;;;;108.17;34.23;;;10.30;99.90;;;;;;5012537;28;20190;-87
2023/02/23 09:41:55;;;;;;;108.72;34.33;;;10.30;99.90;;;;;;5012483;28;20697;-87
2023/02/23 09:44:56;;;;;;;116.70;37.15;;;10.20;99.90;;;;;;5012333;28;20170;-87
2023/02/23 09:47:39;;;;;;;118.22;39.08;;;10.20;99.90;;;;;;5011258;28;20234;-87
2023/02/23 09:50:15;;;;;;;112.85;36.92;;;10.20;99.90;;;;;;5011526;28;20162;-87
2023/02/23 09:52:47;;;;;;;112.10;36.55;;;10.20;99.90;;;;;;5010641;28;20182;-87
2023/02/23 09:55:14;;;;;;;114.68;40.17;;;10.20;99.90;;;;;;5011232;28;20537;-87
2023/02/23 09:57:44;;;;;;;116.13;39.40;;;10.20;99.90;;;;;;5011357;28;20206;-87
2023/02/23 10:00:28;;;;;;;118.82;39.97;;;10.20;99.90;;;;;;5011585;28;20199;-87
2023/02/23 10:03:27;;;;;;;111.75;37.80;;;10.20;99.90;;;;;;5012010;28;20187;-87
2023/02/23 10:06:04;;;;;;;113.20;35.45;;;10.30;99.90;;;;;;5012142;28;20189;-88
2023/02/23 10:09:05;;;;;;;110.78;36.83;;;10.50;99.90;;;;;;5012479;28;20157;-87
2023/02/23 10:11:57;;;;;;;107.10;35.55;;;10.60;99.90;;;;;;5011789;28;20190;-87
2023/02/23 10:14:39;;;;;;;109.90;36.00;;;10.60;99.90;;;;;;5013016;28;20147;-87
2023/02/23 10:17:21;;;;;;;111.72;35.60;;;10.60;99.90;;;;;;5012478;28;20166;-88
2023/02/23 10:20:22;;;;;;;104.53;32.60;;;10.70;99.90;;;;;;5011003;28;20170;-87
2023/02/23 10:22:50;;;;;;;109.40;35.08;;;10.70;99.90;;;;;;5012953;28;20179;-88
2023/02/23 10:25:32;;;;;;;104.22;35.70;;;10.70;99.90;;;;;;5011781;28;20209;-87
2023/02/23 10:28:05;;;;;;;109.95;33.58;;;10.70;99.90;;;;;;5011601;28;20174;-87
2023/02/23 10:30:35;;;;;;;108.30;32.85;;;10.60;99.90;;;;;;5010518;28;20646;-87
2023/02/23 10:33:24;;;;;;;108.43;33.30;;;10.50;99.90;;;;;;5010046;28;20285;-87
2023/02/23 10:35:59;;;;;;;97.97;31.77;;;10.50;99.90;;;;;;5011448;28;20182;-87
2023/02/23 10:38:36;;;;;;;;;;;;;;;;;;;;;
2023/02/23 10:41:05;;;;;;;109.03;34.60;;;10.50;99.90;;;;;;5011805;28;20166;-88
2023/02/23 10:43:32;;;;;;;106.95;34.63;;;10.60;99.90;;;;;;5012125;28;20186;-87
2023/02/23 10:45:58;;;;;;;101.53;30.80;;;10.60;99.90;;;;;;5010750;28;20166;-87
2023/02/23 10:48:41;;;;;;;103.53;31.15;;;10.60;99.90;;;;;;5011126;28;20171;-87
2023/02/23 10:51:18;;;;;;;102.40;31.52;;;10.60;99.90;;;;;;5011574;28;20150;-87
2023/02/23 10:53:44;;;;;;;101.72;31.30;;;10.40;99.90;;;;;;5012622;28;20162;-87
2023/02/23 10:56:15;;;;;;;102.70;33.47;;;10.40;99.90;;;;;;5011402;28;20166;-88
2023/02/23 10:58:59;;;;;;;98.88;28.02;;;10.40;99.90;;;;;;5011007;28;20461;-87
2023/02/23 11:01:44;;;;;;;96.90;31.02;;;10.30;99.90;;;;;;5010735;28;20194;-87
2023/02/23 11:04:24;;;;;;;101.85;32.95;;;10.30;99.90;;;;;;5010347;28;20147;-87
2023/02/23 11:06:51;;;;;;;95.78;32.13;;;10.20;99.90;;;;;;5010311;28;20164;-87
2023/02/23 11:09:29;;;;;;;96.45;32.42;;;10.20;99.90;;;;;;5011168;28;20166;-87
2023/02/23 11:12:22;;;;;;;101.65;29.80;;;10.10;99.90;;;;;;5011230;28;20193;-87
2023/02/23 11:14:52;;;;;;;100.03;31.42;;;10.10;99.90;;;;;;5005554;28;20182;-87
2023/02/23 11:17:38;;;;;;;107.63;36.40;;;10.10;99.90;;;;;;5011290;28;20162;-87
2023/02/23 11:20:34;;;;;;;110.75;37.53;;;10.10;99.90;;;;;;5011033;28;20150;-87
2023/02/23 11:23:30;;;;;;;110.22;36.53;;;10.00;99.90;;;;;;5010153;28;20199;-87
2023/02/23 11:26:23;;;;;;;110.55;36.90;;;10.00;99.90;;;;;;5071965;22;20773;-83
2023/02/23 11:28:56;;;;;;;122.75;35.67;;;10.00;99.90;;;;;;4998983;28;20549;-83
2023/02/23 11:31:39;;;;;;;125.68;38.25;;;10.00;99.90;;;;;;4999139;28;20554;-82
2023/02/23 11:34:06;;;;;;;114.38;37.38;;;10.00;99.90;;;;;;4998327;28;20174;-83
2023/02/23 11:37:33;;;;;;;117.55;35.03;;;10.10;99.90;;;;;;4998151;28;20245;-82
2023/02/23 11:40:28;;;;;;;113.18;36.20;;;10.10;99.90;;;;;;4937953;29;20191;-83
2023/02/23 11:43:42;;;;;;;121.80;34.78;;;10.10;99.90;;;;;;4997792;28;20191;-82
2023/02/23 11:46:08;;;;;;;115.47;34.10;;;10.10;99.90;;;;;;4992963;28;20174;-83
2023/02/23 11:48:47;;;;;;;121.00;35.40;;;10.20;99.90;;;;;;4999519;28;20243;-82
2023/02/23 11:51:37;;;;;;;120.13;36.30;;;10.20;99.90;;;;;;5015423;22;20908;-82
2023/02/23 11:54:05;;;;;;;114.97;34.92;;;10.20;99.90;;;;;;5000088;28;20619;-83
2023/02/23 11:56:33;;;;;;;115.20;37.40;;;10.20;99.90;;;;;;5002307;28;20170;-82
2023/02/23 11:59:14;;;;;;;111.78;37.00;;;10.20;99.90;;;;;;4999038;28;20186;-83
2023/02/23 12:01:44;;;;;;;115.85;35.15;;;10.20;99.90;;;;;;4998683;28;20709;-82
2023/02/23 12:04:33;;;;;;;115.65;39.25;;;10.10;99.90;;;;;;4998281;28;20226;-83
2023/02/23 12:07:20;;;;;;;119.10;39.63;;;10.10;99.90;;;;;;4998571;28;20159;-82
2023/02/23 12:09:51;;;;;;;120.45;39.97;;;10.00;99.90;;;;;;4998704;28;20175;-84
2023/02/23 12:12:22;;;;;;;129.05;38.40;;;9.80;99.90;;;;;;4998743;28;20198;-82
2023/02/23 12:14:52;;;;;;;126.28;35.92;;;9.70;99.90;;;;;;4998891;28;20159;-82
2023/02/23 12:17:24;;;;;;;125.32;38.47;;;9.70;99.90;;;;;;4997157;28;20197;-82
2023/02/23 12:20:20;;;;;;;112.55;33.92;;;9.70;99.90;;;;;;4997286;28;20181;-82
2023/02/23 12:23:00;;;;;;;126.28;36.97;;;9.60;99.90;;;;;;4997094;28;20205;-82
2023/02/23 12:25:50;;;;;;;126.45;38.85;;;9.70;99.90;;;;;;4998635;28;20206;-82
2023/02/23 12:28:37;;;;;;;120.82;35.20;;;9.60;99.90;;;;;;4998409;28;20529;-82
2023/02/23 12:31:15;;;;;;;120.63;36.63;;;9.50;99.90;;;;;;4996797;28;20166;-82
2023/02/23 12:33:46;;;;;;;127.68;38.08;;;9.40;99.90;;;;;;4998103;28;20162;-82
2023/02/23 12:36:34;;;;;;;126.30;36.45;;;9.40;99.90;;;;;;4998050;28;20157;-82
2023/02/23 12:39:17;;;;;;;123.80;32.88;;;9.50;99.90;;;;;;4998101;28;20194;-82
2023/02/23 12:42:09;;;;;;;125.53;35.45;;;9.40;99.90;;;;;;4997554;28;20234;-82
2023/02/23 12:44:54;;;;;;;122.10;35.75;;;9.40;99.90;;;;;;4991441;28;20196;-82
2023/02/23 12:47:52;;;;;;;122.82;35.25;;;9.30;99.90;;;;;;4997719;28;20170;-82
2023/02/23 12:50:32;;;;;;;121.07;37.33;;;9.30;99.90;;;;;;4997561;28;20161;-82
2023/02/23 12:53:15;;;;;;;129.63;39.63;;;9.30;99.90;;;;;;4997448;28;20194;-82
2023/02/23 12:56:03;;;;;;;117.43;36.30;;;9.30;99.90;;;;;;4997534;28;20154;-83
2023/02/23 12:58:34;;;;;;;124.20;35.53;;;9.30;99.90;;;;;;4997819;28;20178;-82
2023/02/23 13:01:15;;;;;;;123.82;39.00;;;9.40;99.90;;;;;;4998350;28;20539;-82
2023/02/23 13:03:58;;;;;;;122.75;36.33;;;9.40;99.90;;;;;;5002071;28;20151;-82
2023/02/23 13:06:29;;;;;;;127.03;34.20;;;9.40;99.90;;;;;;5001966;28;20155;-83
2023/02/23 13:09:04;;;;;;;120.38;35.05;;;9.40;99.90;;;;;;5001791;28;20159;-82
2023/02/23 13:11:58;;;;;;;119.38;36.08;;;9.40;99.90;;;;;;5001454;28;20182;-82
2023/02/23 13:14:48;;;;;;;116.38;35.85;;;9.40;99.90;;;;;;5000543;28;20285;-82
2023/02/23 13:17:32;;;;;;;124.65;37.15;;;9.40;99.90;;;;;;5001486;28;20159;-83
2023/02/23 13:20:09;;;;;;;120.00;34.97;;;9.40;99.90;;;;;;5001561;28;20174;-82
2023/02/23 13:22:52;;;;;;;121.43;36.42;;;9.30;99.90;;;;;;5000058;28;20190;-83
2023/02/23 13:25:38;;;;;;;119.75;34.88;;;9.30;99.90;;;;;;5001431;28;20242;-82
2023/02/23 13:28:12;;;;;;;126.75;35.97;;;9.30;99.90;;;;;;5000210;28;20176;-82
2023/02/23 13:30:44;;;;;;;129.75;37.08;;;9.40;99.90;;;;;;5002237;28;20182;-82
2023/02/23 13:33:25;;;;;;;121.68;33.58;;;9.40;99.90;;;;;;5001362;28;20197;-82
2023/02/23 13:35:52;;;;;;;118.43;35.92;;;9.40;99.90;;;;;;5001655;28;20155;-82
2023/02/23 13:38:31;;;;;;;128.05;34.65;;;9.50;99.90;;;;;;5001265;28;20240;-82
2023/02/23 13:41:24;;;;;;;116.30;31.17;;;9.40;99.90;;;;;;5001425;28;20154;-82
2023/02/23 13:44:33;;;;;;;123.15;32.42;;;9.50;99.90;;;;;;4999253;28;20166;-82
2023/02/23 13:47:37;;;;;;;112.55;30.48;;;9.40;99.90;;;;;;4999520;28;20217;-82
2023/02/23 13:50:29;;;;;;;119.55;29.75;;;9.20;99.90;;;;;;5000499;28;20197;-82
2023/02/23 13:53:05;;;;;;;112.70;27.38;;;9.20;99.90;;;;;;4981175;28;20276;-82
2023/02/23 13:55:46;;;;;;;115.18;29.40;;;9.20;99.90;;;;;;5000643;28;20185;-82
2023/02/23 13:58:19;;;;;;;114.00;30.55;;;9.20;99.90;;;;;;4999298;28;20531;-82
2023/02/23 14:00:53;;;;;;;112.50;31.33;;;9.20;99.90;;;;;;5000802;28;20151;-82
2023/02/23 14:03:23;;;;;;;103.97;28.10;;;9.30;99.90;;;;;;5000238;28;20159;-82
2023/02/23 14:05:56;;;;;;;104.00;26.63;;;9.30;99.90;;;;;;5000669;28;20166;-82
2023/02/23 14:08:43;;;;;;;108.47;29.13;;;9.40;99.90;;;;;;4999351;28;20198;-82
2023/02/23 14:11:25;;;;;;;106.63;28.95;;;9.50;99.90;;;;;;5000799;28;20165;-82
2023/02/23 14:14:01;;;;;;;102.75;28.33;;;9.50;99.90;;;;;;4999706;28;20599;-82
2023/02/23 14:16:27;;;;;;;105.30;32.17;;;9.50;99.90;;;;;;5001030;28;20158;-82